Time;durP1;ratioP1;P1;durP2;ratioP2;P2;SDS_P1;SDS_P2;PMS_P1;PMS_P2;Temp;Humidity;BMP_temperature;BMP_pressure;BME280_temperature;BME280_humidity;BME280_pressure;Samples;Min_cycle;Max_cycle;Signal;HPM_P1;HPM_P2
2021/12/18 00:01:32;;;;;;;40.33;29.43;;;-4.40;99.90;;;;;;5017950;28;20202;-74
2021/12/18 00:03:58;;;;;;;43.10;28.30;;;-4.20;99.90;;;;;;5018275;28;20519;-73
2021/12/18 00:06:27;;;;;;;44.27;29.63;;;-4.00;99.90;;;;;;5018247;28;20164;-80
2021/12/18 00:08:54;;;;;;;39.47;28.03;;;-4.20;99.90;;;;;;5018313;28;20447;-73
2021/12/18 00:11:20;;;;;;;48.57;27.87;;;-3.20;99.90;;;;;;5018164;28;20177;-78
2021/12/18 00:13:45;;;;;;;44.47;29.73;;;-4.50;99.90;;;;;;5016961;28;20184;-79
2021/12/18 00:16:11;;;;;;;44.67;30.47;;;-2.40;99.90;;;;;;5016725;28;20189;-74
2021/12/18 00:18:37;;;;;;;46.23;30.07;;;-3.70;99.90;;;;;;5033603;28;20551;-76
2021/12/18 00:21:04;;;;;;;48.07;32.80;;;-4.10;99.90;;;;;;5018083;28;20493;-78
2021/12/18 00:23:30;;;;;;;49.23;30.03;;;-3.80;99.90;;;;;;5017824;28;20275;-74
2021/12/18 00:25:56;;;;;;;48.43;31.30;;;-3.50;99.90;;;;;;5016815;28;20414;-77
2021/12/18 00:28:23;;;;;;;41.23;28.40;;;-3.90;99.90;;;;;;5017775;28;20399;-74
2021/12/18 00:30:49;;;;;;;48.93;30.70;;;-3.60;99.90;;;;;;5016661;28;20218;-74
2021/12/18 00:33:14;;;;;;;49.43;31.93;;;-3.60;99.90;;;;;;5033100;28;20267;-74
2021/12/18 00:35:40;;;;;;;49.00;31.27;;;-3.70;99.90;;;;;;5017800;28;20543;-78
2021/12/18 00:38:08;;;;;;;56.50;32.00;;;-3.90;99.90;;;;;;5016704;28;20176;-75
2021/12/18 00:40:59;;;;;;;57.03;35.50;;;-3.80;99.90;;;;;;5017535;28;20190;-74
2021/12/18 00:43:34;;;;;;;46.73;29.80;;;-3.30;99.90;;;;;;5017667;28;20429;-74
2021/12/18 00:46:00;;;;;;;48.03;31.00;;;-4.50;99.90;;;;;;5017278;28;20825;-74
2021/12/18 00:48:26;;;;;;;47.63;31.57;;;-3.70;99.90;;;;;;5017550;28;20401;-74
2021/12/18 00:50:52;;;;;;;45.33;31.20;;;-3.70;99.90;;;;;;5017509;28;21033;-75
2021/12/18 00:53:18;;;;;;;51.23;31.40;;;-3.50;99.90;;;;;;5016350;28;20518;-74
2021/12/18 00:55:45;;;;;;;50.77;32.80;;;-3.30;99.90;;;;;;5017470;28;20174;-76
2021/12/18 00:58:11;;;;;;;49.90;32.00;;;-3.30;99.90;;;;;;5017512;28;20434;-76
2021/12/18 01:00:38;;;;;;;55.90;34.97;;;-3.50;99.90;;;;;;5017050;28;20480;-77
2021/12/18 01:03:05;;;;;;;57.97;33.73;;;-3.60;99.90;;;;;;5032647;28;20236;-76
2021/12/18 01:05:33;;;;;;;57.70;34.17;;;-2.20;99.90;;;;;;5017366;28;20168;-78
2021/12/18 01:08:00;;;;;;;52.80;33.60;;;-3.20;99.90;;;;;;5017113;28;20177;-77
2021/12/18 01:12:58;;;;;;;56.43;33.50;;;-2.70;99.90;;;;;;5016923;28;20433;-79
2021/12/18 01:15:35;;;;;;;55.23;33.60;;;-4.00;99.90;;;;;;5016941;28;20252;-76
2021/12/18 01:23:30;;;;;;;54.50;33.70;;;-4.40;99.90;;;;;;5016658;28;20547;-74
2021/12/18 01:25:57;;;;;;;54.93;32.07;;;-4.20;99.90;;;;;;5016865;28;20438;-74
2021/12/18 01:28:24;;;;;;;61.87;37.37;;;-4.10;99.90;;;;;;5015460;28;20228;-73
2021/12/18 01:30:50;;;;;;;56.43;34.80;;;-4.30;99.90;;;;;;5015750;28;20185;-75
2021/12/18 01:33:16;;;;;;;55.23;33.77;;;-3.80;99.90;;;;;;5016950;28;20516;-73
2021/12/18 01:35:43;;;;;;;56.67;35.47;;;-4.00;99.90;;;;;;5015364;28;20429;-74
2021/12/18 01:38:10;;;;;;;52.97;32.83;;;-3.80;99.90;;;;;;5016726;28;20179;-74
2021/12/18 01:40:36;;;;;;;62.40;36.27;;;-3.60;99.90;;;;;;5016496;28;20196;-73
2021/12/18 01:51:17;;;;;;;58.37;37.00;;;-2.60;99.90;;;;;;5016241;28;20608;-74
2021/12/18 01:53:43;;;;;;;56.17;32.57;;;-2.90;99.90;;;;;;5016220;28;20426;-73
2021/12/18 01:56:09;;;;;;;60.40;34.27;;;-2.80;99.90;;;;;;5016184;28;20174;-81
2021/12/18 01:58:36;;;;;;;64.90;36.80;;;-3.40;99.90;;;;;;5015993;28;20565;-81
2021/12/18 02:01:03;;;;;;;64.87;38.70;;;-3.70;99.90;;;;;;5016113;28;20496;-81
2021/12/18 02:03:31;;;;;;;70.10;37.83;;;-3.20;99.90;;;;;;5016335;28;20196;-79
2021/12/18 02:05:57;;;;;;;63.40;39.17;;;-3.80;99.90;;;;;;5016073;28;20284;-79
2021/12/18 02:08:26;;;;;;;64.30;39.03;;;-2.90;99.90;;;;;;5016140;28;20173;-81
2021/12/18 02:21:54;;;;;;;60.53;37.97;;;-3.80;99.90;;;;;;5016051;28;20250;-80
2021/12/18 02:24:23;;;;;;;65.17;39.10;;;-4.20;99.90;;;;;;5015803;28;20186;-80
2021/12/18 02:26:49;;;;;;;66.77;39.90;;;-3.50;99.90;;;;;;5015595;28;20549;-73
2021/12/18 02:29:16;;;;;;;65.07;40.87;;;-3.90;99.90;;;;;;5016016;28;20248;-74
2021/12/18 02:31:43;;;;;;;60.20;38.20;;;-2.60;99.90;;;;;;5015804;28;20169;-73
2021/12/18 02:34:20;;;;;;;65.17;39.07;;;-3.90;99.90;;;;;;5015900;28;20162;-74
2021/12/18 02:36:48;;;;;;;64.07;38.50;;;-3.50;99.90;;;;;;5015831;28;20169;-75
2021/12/18 02:39:40;;;;;;;60.93;36.93;;;-1.80;99.90;;;;;;5015783;28;20170;-74
2021/12/18 02:42:18;;;;;;;63.50;38.60;;;-2.40;99.90;;;;;;5015966;28;20608;-75
2021/12/18 02:44:45;;;;;;;55.70;36.97;;;-4.20;99.90;;;;;;5015868;28;20170;-74
2021/12/18 02:47:12;;;;;;;64.57;39.90;;;-3.40;99.90;;;;;;5015684;28;20166;-75
2021/12/18 02:49:47;;;;;;;70.57;43.67;;;-3.50;99.90;;;;;;5015718;28;20174;-75
2021/12/18 02:52:13;;;;;;;64.10;39.47;;;-3.60;99.90;;;;;;5015542;28;20201;-74
2021/12/18 02:54:40;;;;;;;67.83;37.80;;;-2.50;99.90;;;;;;5033575;28;20464;-75
2021/12/18 02:57:06;;;;;;;60.97;38.33;;;-4.10;99.90;;;;;;5019248;28;20492;-75
2021/12/18 02:59:45;;;;;;;66.27;39.47;;;-4.40;99.90;;;;;;5019618;28;20193;-74
2021/12/18 03:02:12;;;;;;;61.63;39.30;;;-3.60;99.90;;;;;;5018028;28;20208;-74
2021/12/18 03:04:39;;;;;;;63.27;42.03;;;-3.80;99.90;;;;;;5019422;28;20192;-75
2021/12/18 03:07:08;;;;;;;63.00;39.67;;;-3.90;99.90;;;;;;5019235;28;20158;-74
2021/12/18 03:19:07;;;;;;;65.93;39.80;;;-4.40;99.90;;;;;;5019573;28;20474;-74
2021/12/18 03:25:39;;;;;;;62.67;39.87;;;-4.30;99.90;;;;;;5018803;28;20182;-73
2021/12/18 03:28:07;;;;;;;62.70;35.47;;;-3.90;99.90;;;;;;5019078;28;20573;-73
2021/12/18 03:30:34;;;;;;;60.33;38.97;;;-3.80;99.90;;;;;;5019057;28;20187;-75
2021/12/18 03:33:00;;;;;;;56.80;37.57;;;-3.80;99.90;;;;;;5018980;28;20579;-74
2021/12/18 03:35:26;;;;;;;53.80;36.03;;;-3.50;99.90;;;;;;5018789;28;20504;-74
2021/12/18 03:37:53;;;;;;;63.10;39.70;;;-3.60;99.90;;;;;;5017712;28;20166;-75
2021/12/18 03:40:21;;;;;;;67.37;40.47;;;-3.60;99.90;;;;;;5017593;28;20185;-78
2021/12/18 03:42:48;;;;;;;60.57;37.13;;;-3.20;99.90;;;;;;5018706;28;20553;-73
2021/12/18 03:45:16;;;;;;;59.73;38.70;;;-2.90;99.90;;;;;;5018769;28;20170;-75
2021/12/18 03:47:42;;;;;;;64.07;37.20;;;-4.70;99.90;;;;;;5018687;28;20162;-76
2021/12/18 03:50:09;;;;;;;65.40;39.53;;;-4.30;99.90;;;;;;5017704;28;20492;-73
2021/12/18 03:52:34;;;;;;;59.67;37.90;;;-4.30;99.90;;;;;;5033750;28;20492;-75
2021/12/18 03:55:00;;;;;;;65.27;39.37;;;-3.70;99.90;;;;;;5018337;28;20173;-79
2021/12/18 03:57:26;;;;;;;59.63;35.57;;;-4.20;99.90;;;;;;5018674;28;20662;-81
2021/12/18 03:59:52;;;;;;;60.00;38.50;;;-4.50;99.90;;;;;;5018587;28;20180;-80
2021/12/18 04:02:18;;;;;;;66.97;39.70;;;-4.30;99.90;;;;;;5018319;28;20197;-76
2021/12/18 04:04:44;;;;;;;58.33;36.80;;;-4.40;99.90;;;;;;5016482;28;20174;-79
2021/12/18 04:07:11;;;;;;;61.60;36.40;;;-4.10;99.90;;;;;;5017702;28;20166;-74
2021/12/18 04:09:36;;;;;;;59.23;35.37;;;-3.80;99.90;;;;;;5018077;28;20188;-75
2021/12/18 04:12:03;;;;;;;60.87;36.17;;;-3.70;99.90;;;;;;5018100;28;20174;-81
2021/12/18 04:14:30;;;;;;;59.10;35.37;;;-3.40;99.90;;;;;;5018207;28;20521;-74
2021/12/18 04:16:56;;;;;;;60.93;36.70;;;-3.20;99.90;;;;;;5016945;28;20201;-82
2021/12/18 04:19:22;;;;;;;57.87;39.03;;;-3.40;99.90;;;;;;5017085;28;20174;-75
2021/12/18 04:21:48;;;;;;;64.77;39.20;;;-1.80;99.90;;;;;;5017757;28;20193;-80
2021/12/18 04:24:14;;;;;;;63.47;38.13;;;-3.50;99.90;;;;;;5017881;28;20181;-79
2021/12/18 04:26:40;;;;;;;62.63;36.03;;;-3.70;99.90;;;;;;5017861;28;20169;-78
2021/12/18 04:29:06;;;;;;;55.60;34.97;;;-3.40;99.90;;;;;;5017860;28;20185;-81
2021/12/18 04:31:35;;;;;;;56.17;36.90;;;-3.60;99.90;;;;;;5017938;28;20180;-75
2021/12/18 04:34:01;;;;;;;52.97;33.77;;;-3.30;99.90;;;;;;5017736;28;20161;-80
2021/12/18 04:36:27;;;;;;;62.40;38.00;;;-3.50;99.90;;;;;;5017461;28;20189;-81
2021/12/18 04:38:53;;;;;;;57.57;37.07;;;-3.90;99.90;;;;;;5017646;28;20173;-80
2021/12/18 04:41:24;;;;;;;63.67;40.00;;;-3.90;99.90;;;;;;5017699;28;20286;-82
2021/12/18 04:43:51;;;;;;;56.93;36.33;;;-3.40;99.90;;;;;;5017441;28;20201;-81
2021/12/18 04:46:18;;;;;;;59.90;38.23;;;-3.20;99.90;;;;;;5017550;28;20192;-81
2021/12/18 04:48:43;;;;;;;58.33;36.93;;;-3.20;99.90;;;;;;5017403;28;20253;-79
2021/12/18 04:51:09;;;;;;;56.20;35.67;;;-3.30;99.90;;;;;;5017503;28;20266;-74
2021/12/18 04:53:35;;;;;;;55.20;33.77;;;-2.40;99.90;;;;;;5032847;28;20651;-75
2021/12/18 04:56:02;;;;;;;49.27;34.93;;;-3.00;99.90;;;;;;5016520;28;20532;-76
2021/12/18 04:58:27;;;;;;;57.67;35.27;;;-3.50;99.90;;;;;;5017447;28;20601;-79
2021/12/18 05:00:54;;;;;;;53.47;33.10;;;-3.40;99.90;;;;;;5017377;28;20187;-81
2021/12/18 05:03:21;;;;;;;60.40;34.73;;;-3.30;99.90;;;;;;5017179;28;20188;-82
2021/12/18 05:05:47;;;;;;;53.80;32.17;;;-2.50;99.90;;;;;;5017093;28;20220;-81
2021/12/18 05:08:13;;;;;;;52.93;34.63;;;-2.70;99.90;;;;;;5017120;28;20169;-78
2021/12/18 05:10:39;;;;;;;51.53;31.57;;;-3.30;99.90;;;;;;5017319;28;20170;-78
2021/12/18 05:13:05;;;;;;;56.47;34.43;;;-3.40;99.90;;;;;;5017098;28;20248;-78
2021/12/18 05:15:31;;;;;;;58.13;36.10;;;-3.40;99.90;;;;;;5017101;28;20173;-81
2021/12/18 05:17:56;;;;;;;58.60;35.53;;;-3.70;99.90;;;;;;5032002;28;20185;-79
2021/12/18 05:20:22;;;;;;;52.97;32.83;;;-3.70;99.90;;;;;;5015470;28;20487;-80
2021/12/18 05:22:48;;;;;;;53.60;32.73;;;-3.60;99.90;;;;;;5016930;28;20180;-81
2021/12/18 05:25:14;;;;;;;61.50;34.37;;;-3.40;99.90;;;;;;5016690;28;20181;-79
2021/12/18 05:27:40;;;;;;;53.33;31.87;;;-3.50;99.90;;;;;;5016876;28;20196;-82
2021/12/18 05:30:08;;;;;;;56.23;32.63;;;-3.00;99.90;;;;;;5015695;28;20264;-80
2021/12/18 05:32:34;;;;;;;58.23;34.63;;;-2.90;99.90;;;;;;5016848;28;20264;-80
2021/12/18 05:35:00;;;;;;;54.23;31.97;;;-2.70;99.90;;;;;;5016258;28;20336;-80
2021/12/18 05:38:04;;;;;;;60.83;34.73;;;-2.60;99.90;;;;;;5016631;28;20201;-80
2021/12/18 05:40:27;;;;;;;60.80;35.77;;;-2.80;99.90;;;;;;5018053;28;20562;-82
2021/12/18 05:42:53;;;;;;;61.20;35.60;;;-3.40;99.90;;;;;;5016585;28;20208;-79
2021/12/18 05:45:19;;;;;;;65.00;34.67;;;-3.40;99.90;;;;;;5016565;28;20189;-81
2021/12/18 05:47:46;;;;;;;61.20;34.00;;;-3.40;99.90;;;;;;5015524;28;20258;-81
2021/12/18 05:50:14;;;;;;;56.30;34.97;;;-3.30;99.90;;;;;;5016185;28;20356;-77
2021/12/18 05:52:41;;;;;;;54.77;33.87;;;-3.20;99.90;;;;;;5015434;28;20188;-76
2021/12/18 05:55:08;;;;;;;62.63;34.80;;;-3.10;99.90;;;;;;5016475;28;20169;-73
2021/12/18 05:57:34;;;;;;;57.17;32.37;;;-3.00;99.90;;;;;;5016293;28;20177;-80
2021/12/18 06:00:00;;;;;;;59.53;35.70;;;-2.90;99.90;;;;;;5031742;28;20174;-79
2021/12/18 06:02:25;;;;;;;60.40;36.03;;;-3.00;99.90;;;;;;5016287;28;20208;-81
2021/12/18 06:04:51;;;;;;;60.37;36.23;;;-2.60;99.90;;;;;;5015881;28;20161;-80
2021/12/18 06:07:29;;;;;;;52.73;32.00;;;-2.90;99.90;;;;;;5016153;28;20173;-80
2021/12/18 06:09:55;;;;;;;52.53;31.30;;;-2.90;99.90;;;;;;5016057;28;20256;-79
2021/12/18 06:12:21;;;;;;;61.07;35.83;;;-2.80;99.90;;;;;;5016280;28;20625;-79
2021/12/18 06:14:47;;;;;;;60.67;35.77;;;-3.50;99.90;;;;;;5015209;28;20535;-74
2021/12/18 06:17:13;;;;;;;58.27;33.77;;;-3.40;99.90;;;;;;5016017;28;20176;-76
2021/12/18 06:19:39;;;;;;;66.67;36.47;;;-3.90;99.90;;;;;;5015792;28;20536;-79
2021/12/18 06:22:05;;;;;;;66.10;36.63;;;-3.70;99.90;;;;;;5015945;28;20268;-77
2021/12/18 06:24:31;;;;;;;70.97;36.07;;;-2.50;99.90;;;;;;5015989;28;20573;-75
2021/12/18 06:26:56;;;;;;;57.03;34.80;;;-3.40;99.90;;;;;;5015768;28;20180;-74
2021/12/18 06:29:22;;;;;;;59.53;35.53;;;-3.30;99.90;;;;;;5015209;28;20165;-74
2021/12/18 06:31:49;;;;;;;62.17;36.13;;;-3.10;99.90;;;;;;5015853;28;20162;-74
2021/12/18 06:34:16;;;;;;;61.80;33.53;;;-3.30;99.90;;;;;;5015534;28;20178;-74
2021/12/18 06:36:42;;;;;;;57.97;33.97;;;-3.00;99.90;;;;;;5015873;28;20573;-74
2021/12/18 06:39:08;;;;;;;61.80;34.43;;;-3.40;99.90;;;;;;5015844;28;20189;-73
2021/12/18 06:41:34;;;;;;;63.97;35.67;;;-3.00;99.90;;;;;;5015827;28;20209;-76
2021/12/18 06:43:59;;;;;;;60.67;34.83;;;-3.20;99.90;;;;;;5016076;28;20169;-74
2021/12/18 06:46:25;;;;;;;64.30;36.20;;;-2.60;99.90;;;;;;5015631;28;20584;-74
2021/12/18 06:48:51;;;;;;;68.47;38.87;;;-2.90;99.90;;;;;;5015551;28;20222;-73
2021/12/18 06:51:19;;;;;;;68.90;36.23;;;-2.90;99.90;;;;;;5015729;28;20252;-74
2021/12/18 06:53:45;;;;;;;62.00;33.07;;;-2.90;99.90;;;;;;5031059;28;20182;-78
2021/12/18 06:56:11;;;;;;;67.30;34.17;;;-3.00;99.90;;;;;;5014561;28;20177;-73
2021/12/18 06:58:37;;;;;;;65.17;36.53;;;-2.70;99.90;;;;;;5015797;28;20312;-74
2021/12/18 07:01:02;;;;;;;65.43;36.10;;;-3.60;99.90;;;;;;5015432;28;20190;-73
2021/12/18 07:03:29;;;;;;;71.53;37.50;;;-3.10;99.90;;;;;;5015517;28;20169;-75
2021/12/18 07:05:55;;;;;;;58.17;33.07;;;-3.40;99.90;;;;;;5015542;28;20277;-73
2021/12/18 07:08:21;;;;;;;61.83;34.77;;;-3.30;99.90;;;;;;5015609;28;20269;-73
2021/12/18 07:10:47;;;;;;;70.57;36.93;;;-3.10;99.90;;;;;;5015584;28;20174;-76
2021/12/18 07:13:13;;;;;;;68.80;37.50;;;-2.80;99.90;;;;;;5015591;28;20184;-73
2021/12/18 07:15:39;;;;;;;81.83;40.83;;;-2.80;99.90;;;;;;5015617;28;20212;-74
2021/12/18 07:18:04;;;;;;;69.77;36.93;;;-2.70;99.90;;;;;;5030619;28;20198;-73
2021/12/18 07:20:31;;;;;;;76.67;39.33;;;-2.60;99.90;;;;;;5015928;28;20165;-74
2021/12/18 07:22:57;;;;;;;65.93;34.33;;;-2.40;99.90;;;;;;5030635;28;20561;-74
2021/12/18 07:25:23;;;;;;;65.77;33.77;;;-2.00;99.90;;;;;;5015463;28;20170;-75
2021/12/18 07:27:48;;;;;;;66.60;37.07;;;-0.50;99.90;;;;;;5015414;28;20584;-75
2021/12/18 07:30:15;;;;;;;68.20;36.57;;;-2.30;99.90;;;;;;5015374;28;20162;-75
2021/12/18 07:32:42;;;;;;;75.17;38.60;;;-3.70;99.90;;;;;;5014312;28;20169;-75
2021/12/18 07:35:09;;;;;;;70.07;38.27;;;-3.50;99.90;;;;;;5015208;28;20213;-73
2021/12/18 07:37:35;;;;;;;77.40;40.13;;;-3.40;99.90;;;;;;5014191;28;20186;-76
2021/12/18 07:40:03;;;;;;;63.20;33.50;;;-3.30;99.90;;;;;;5016803;28;20208;-73
2021/12/18 07:42:29;;;;;;;77.27;41.57;;;-2.80;99.90;;;;;;5034266;28;20206;-75
2021/12/18 07:44:56;;;;;;;74.23;41.07;;;-3.40;99.90;;;;;;5035598;28;20313;-76
2021/12/18 07:47:22;;;;;;;73.43;41.17;;;-3.30;99.90;;;;;;5018664;28;20248;-73
2021/12/18 07:49:48;;;;;;;76.83;37.37;;;-3.50;99.90;;;;;;5018799;28;20268;-74
2021/12/18 07:52:14;;;;;;;70.77;38.27;;;-3.30;99.90;;;;;;5017625;28;20487;-78
2021/12/18 07:54:40;;;;;;;70.73;35.33;;;-3.10;99.90;;;;;;5018766;28;20186;-74
2021/12/18 07:57:07;;;;;;;76.03;38.40;;;-2.40;99.90;;;;;;5018554;28;20178;-73
2021/12/18 07:59:32;;;;;;;73.37;37.73;;;-2.50;99.90;;;;;;5018349;28;20197;-77
2021/12/18 08:02:00;;;;;;;73.80;38.80;;;-2.60;99.90;;;;;;5018301;28;20291;-78
2021/12/18 08:04:27;;;;;;;66.40;33.93;;;-2.70;99.90;;;;;;5017429;28;20301;-77
2021/12/18 08:06:53;;;;;;;75.77;36.20;;;-2.50;99.90;;;;;;5018203;28;20249;-79
2021/12/18 08:09:19;;;;;;;64.50;33.30;;;-2.40;99.90;;;;;;5018358;28;20224;-80
2021/12/18 08:11:45;;;;;;;72.87;36.80;;;-2.70;99.90;;;;;;5018395;28;20280;-76
2021/12/18 08:14:11;;;;;;;70.73;37.57;;;-2.80;99.90;;;;;;5033203;28;20229;-77
2021/12/18 08:16:36;;;;;;;74.27;36.17;;;-1.20;99.90;;;;;;5018200;28;20166;-73
2021/12/18 08:19:02;;;;;;;73.80;35.53;;;-2.70;99.90;;;;;;5016902;28;20523;-74
2021/12/18 08:21:28;;;;;;;65.10;35.23;;;-2.70;99.90;;;;;;5018029;28;20190;-74
2021/12/18 08:23:56;;;;;;;77.77;36.33;;;-2.10;99.90;;;;;;5018012;28;20463;-73
2021/12/18 08:26:21;;;;;;;65.43;35.23;;;-2.70;99.90;;;;;;5021574;28;20484;-77
2021/12/18 08:28:47;;;;;;;75.10;38.27;;;-2.90;99.90;;;;;;5029532;28;20203;-77
2021/12/18 08:31:13;;;;;;;81.90;37.40;;;-2.60;99.90;;;;;;5025580;28;20182;-73
2021/12/18 08:33:39;;;;;;;76.37;34.57;;;-2.30;99.90;;;;;;5028914;28;20196;-75
2021/12/18 08:36:05;;;;;;;62.67;32.77;;;-2.40;99.90;;;;;;5024737;28;20204;-73
2021/12/18 08:38:31;;;;;;;76.80;35.93;;;-2.20;99.90;;;;;;5031766;28;20176;-72
2021/12/18 08:40:57;;;;;;;63.30;32.30;;;-2.00;99.90;;;;;;5027641;28;20188;-72
2021/12/18 08:43:23;;;;;;;70.67;35.70;;;-2.40;99.90;;;;;;5020973;28;20205;-72
2021/12/18 08:45:49;;;;;;;76.23;35.17;;;-2.30;99.90;;;;;;5027930;28;20193;-72
2021/12/18 08:48:15;;;;;;;73.60;33.90;;;-3.10;99.90;;;;;;5029818;28;20173;-74
2021/12/18 08:50:41;;;;;;;80.47;37.10;;;-2.80;99.90;;;;;;5031670;28;20191;-76
2021/12/18 08:53:09;;;;;;;76.20;35.97;;;-3.00;99.90;;;;;;5025690;28;20861;-75
2021/12/18 08:55:35;;;;;;;78.40;37.50;;;-3.30;99.90;;;;;;5025785;28;20177;-85
2021/12/18 08:58:01;;;;;;;80.77;39.60;;;-3.30;99.90;;;;;;5015193;28;20261;-77
2021/12/18 09:00:29;;;;;;;77.60;36.57;;;-3.60;99.90;;;;;;5018535;28;20173;-79
2021/12/18 09:02:55;;;;;;;81.77;36.00;;;-3.40;99.90;;;;;;5032284;28;20535;-80
2021/12/18 09:05:22;;;;;;;74.83;34.40;;;-2.40;99.90;;;;;;5028795;28;20189;-75
2021/12/18 09:07:48;;;;;;;71.13;30.63;;;-3.40;99.90;;;;;;5027055;28;20193;-74
2021/12/18 09:10:15;;;;;;;73.10;33.50;;;-3.60;99.90;;;;;;5024612;28;20177;-77
2021/12/18 09:12:41;;;;;;;72.90;33.00;;;-2.70;99.90;;;;;;5021664;28;20208;-82
2021/12/18 09:15:07;;;;;;;68.97;33.63;;;-2.80;99.90;;;;;;5020477;28;20175;-74
2021/12/18 09:17:33;;;;;;;67.33;33.90;;;-2.80;99.90;;;;;;5026300;28;20184;-74
2021/12/18 09:19:59;;;;;;;67.80;32.97;;;-3.50;99.90;;;;;;5025053;28;20181;-78
2021/12/18 09:22:25;;;;;;;77.27;37.53;;;-3.60;99.90;;;;;;5033066;28;20525;-73
2021/12/18 09:24:51;;;;;;;79.50;36.17;;;-3.80;99.90;;;;;;5036977;28;20203;-75
2021/12/18 09:27:17;;;;;;;69.13;33.83;;;-3.30;99.90;;;;;;5035397;28;20184;-76
2021/12/18 09:29:43;;;;;;;76.37;34.37;;;-3.00;99.90;;;;;;5035912;28;20526;-74
2021/12/18 09:32:09;;;;;;;77.07;34.23;;;-3.50;99.90;;;;;;5036584;28;20756;-80
2021/12/18 09:34:35;;;;;;;76.10;36.37;;;-1.90;99.90;;;;;;5035871;28;20217;-73
2021/12/18 09:37:02;;;;;;;81.37;34.63;;;-2.30;99.90;;;;;;5036257;28;20183;-77
2021/12/18 09:39:28;;;;;;;70.10;34.20;;;-3.20;99.90;;;;;;5036176;28;20202;-77
2021/12/18 09:41:54;;;;;;;68.43;36.10;;;-3.40;99.90;;;;;;5035987;28;20252;-81
2021/12/18 09:44:24;;;;;;;74.40;34.63;;;-3.70;99.90;;;;;;5036018;28;20179;-82
2021/12/18 09:46:50;;;;;;;78.53;33.97;;;-2.60;99.90;;;;;;5037020;28;20169;-78
2021/12/18 09:49:16;;;;;;;80.33;35.50;;;-2.80;99.90;;;;;;5036483;28;20178;-80
2021/12/18 09:51:42;;;;;;;73.53;36.33;;;-3.30;99.90;;;;;;5036291;28;20216;-79
2021/12/18 09:54:08;;;;;;;72.70;37.70;;;-2.80;99.90;;;;;;5036325;28;20492;-75
2021/12/18 09:56:34;;;;;;;72.93;33.43;;;-3.00;99.90;;;;;;5035751;28;20183;-73
2021/12/18 09:59:00;;;;;;;67.50;31.63;;;-3.20;99.90;;;;;;5034761;28;20188;-76
2021/12/18 10:01:26;;;;;;;64.70;29.80;;;-3.30;99.90;;;;;;5036014;28;20200;-75
2021/12/18 10:03:54;;;;;;;67.13;30.00;;;-2.90;99.90;;;;;;5024713;28;20189;-73
2021/12/18 10:06:41;;;;;;;65.13;30.07;;;-3.20;99.90;;;;;;5016115;28;20173;-74
2021/12/18 10:09:11;;;;;;;61.77;27.73;;;-3.00;99.90;;;;;;5015308;28;20625;-78
2021/12/18 10:11:56;;;;;;;71.73;31.27;;;-2.20;99.90;;;;;;5014540;28;20467;-78
2021/12/18 10:14:33;;;;;;;69.37;29.23;;;-2.40;99.90;;;;;;5016239;28;20271;-78
2021/12/18 10:16:58;;;;;;;58.90;27.53;;;-2.70;99.90;;;;;;5015097;28;20182;-79
2021/12/18 10:19:33;;;;;;;70.60;29.87;;;-2.50;99.90;;;;;;5025374;28;20175;-74
2021/12/18 10:22:07;;;;;;;61.83;29.23;;;-3.00;99.90;;;;;;5022365;28;20225;-75
2021/12/18 10:24:37;;;;;;;52.97;26.47;;;-3.30;99.90;;;;;;5027122;28;20181;-78
2021/12/18 10:27:24;;;;;;;55.70;28.17;;;-3.00;99.90;;;;;;5035696;28;20231;-77
2021/12/18 10:29:52;;;;;;;65.33;31.10;;;-2.90;99.90;;;;;;5032269;28;20317;-75
2021/12/18 10:32:21;;;;;;;60.80;26.63;;;-2.60;99.90;;;;;;5035751;28;20169;-84
2021/12/18 10:34:55;;;;;;;57.00;28.87;;;-2.90;99.90;;;;;;5034492;28;20288;-80
2021/12/18 10:37:30;;;;;;;56.27;29.57;;;-2.90;99.90;;;;;;5024018;28;20176;-76
2021/12/18 10:39:59;;;;;;;60.97;27.33;;;-2.40;99.90;;;;;;5015486;28;20178;-77
2021/12/18 10:42:39;;;;;;;61.57;29.07;;;-3.30;99.90;;;;;;5015763;28;20204;-75
2021/12/18 10:45:11;;;;;;;60.07;29.10;;;-3.60;99.90;;;;;;5015819;28;20276;-76
2021/12/18 10:48:14;;;;;;;58.03;26.50;;;-3.10;99.90;;;;;;5015736;28;20595;-75
2021/12/18 10:50:51;;;;;;;63.37;29.97;;;-3.00;99.90;;;;;;5017207;28;20289;-83
2021/12/18 10:53:21;;;;;;;60.73;27.80;;;-3.40;99.90;;;;;;5014341;28;20185;-75
2021/12/18 10:55:47;;;;;;;61.90;28.63;;;-3.70;99.90;;;;;;5015674;28;20258;-75
2021/12/18 10:58:18;;;;;;;63.83;30.67;;;-3.10;99.90;;;;;;5016126;28;20267;-74
2021/12/18 11:00:46;;;;;;;63.70;29.53;;;-2.90;99.90;;;;;;5015509;28;20168;-73
2021/12/18 11:03:21;;;;;;;64.83;27.47;;;-3.20;99.90;;;;;;5020834;28;20233;-75
2021/12/18 11:06:08;;;;;;;59.03;29.77;;;-2.90;99.90;;;;;;5023283;28;20179;-78
2021/12/18 11:08:37;;;;;;;61.73;28.93;;;-2.60;99.90;;;;;;5023039;28;20169;-76
2021/12/18 11:13:52;;;;;;;65.47;30.10;;;-2.90;99.90;;;;;;5019681;28;20175;-74
2021/12/18 11:16:19;;;;;;;59.30;31.50;;;-2.70;99.90;;;;;;5031628;28;20194;-83
2021/12/18 11:18:46;;;;;;;62.33;28.87;;;-1.80;99.90;;;;;;5038556;28;20218;-81
2021/12/18 11:21:13;;;;;;;59.57;29.40;;;-3.60;99.90;;;;;;5036963;28;20210;-77
2021/12/18 11:23:42;;;;;;;62.37;30.30;;;-1.10;99.90;;;;;;5038137;28;20270;-80
2021/12/18 11:26:09;;;;;;;65.27;29.43;;;-2.70;99.90;;;;;;5037667;28;20589;-80
2021/12/18 11:28:41;;;;;;;66.70;30.60;;;-2.30;99.90;;;;;;5037646;28;20200;-82
2021/12/18 11:31:07;;;;;;;59.23;27.40;;;-2.50;99.90;;;;;;5038496;28;20185;-80
2021/12/18 11:33:34;;;;;;;61.90;28.03;;;-2.30;99.90;;;;;;5038377;28;20664;-77
2021/12/18 11:36:03;;;;;;;67.77;31.23;;;-2.90;99.90;;;;;;5038195;28;20285;-75
2021/12/18 11:38:31;;;;;;;59.13;29.27;;;-2.80;99.90;;;;;;5037992;28;20570;-81
2021/12/18 11:40:57;;;;;;;58.20;27.97;;;-2.80;99.90;;;;;;5038362;28;20660;-78
2021/12/18 11:43:35;;;;;;;69.77;26.67;;;-2.90;99.90;;;;;;5038305;28;20178;-79
2021/12/18 11:46:24;;;;;;;57.43;27.40;;;-2.90;99.90;;;;;;5037075;28;20490;-78
2021/12/18 11:49:02;;;;;;;57.90;27.43;;;-2.70;99.90;;;;;;5037218;28;20182;-74
2021/12/18 11:51:29;;;;;;;59.53;27.20;;;-2.80;99.90;;;;;;5036850;28;20200;-75
2021/12/18 11:53:55;;;;;;;54.33;25.47;;;-2.50;99.90;;;;;;5037963;28;20182;-75
2021/12/18 11:56:22;;;;;;;47.77;22.47;;;-2.40;99.90;;;;;;5026500;28;20579;-76
2021/12/18 11:58:49;;;;;;;46.90;20.97;;;-2.10;99.90;;;;;;5027086;28;20657;-77
2021/12/18 12:01:26;;;;;;;42.83;20.87;;;-2.50;99.90;;;;;;5036245;28;20250;-74
2021/12/18 12:03:52;;;;;;;43.00;20.83;;;-2.10;99.90;;;;;;5038118;28;20171;-76
2021/12/18 12:06:28;;;;;;;47.40;22.93;;;-2.90;99.90;;;;;;5036748;28;20178;-76
2021/12/18 12:09:13;;;;;;;48.97;24.67;;;-3.20;99.90;;;;;;5036817;28;20171;-83
2021/12/18 12:11:54;;;;;;;48.03;23.57;;;-2.20;99.90;;;;;;5034974;28;20584;-77
2021/12/18 12:14:22;;;;;;;50.87;23.50;;;-3.40;99.90;;;;;;5021331;28;20172;-76
2021/12/18 12:16:48;;;;;;;56.00;24.83;;;-2.90;99.90;;;;;;5028731;28;20601;-79
2021/12/18 12:19:15;;;;;;;58.27;26.97;;;-3.50;99.90;;;;;;5026830;28;20214;-77
2021/12/18 12:21:44;;;;;;;51.47;27.90;;;-2.50;99.90;;;;;;5017732;28;20199;-76
2021/12/18 12:24:11;;;;;;;63.13;28.23;;;-3.40;99.90;;;;;;5017955;28;20181;-76
2021/12/18 12:26:38;;;;;;;57.50;27.03;;;-2.70;99.90;;;;;;5016893;28;20205;-75
2021/12/18 12:29:05;;;;;;;66.40;29.43;;;-3.50;99.90;;;;;;5017788;28;20177;-74
2021/12/18 12:31:32;;;;;;;57.07;26.93;;;-3.30;99.90;;;;;;5021488;28;20182;-77
2021/12/18 12:34:20;;;;;;;60.67;28.00;;;-3.10;99.90;;;;;;5027430;28;20237;-75
2021/12/18 12:36:46;;;;;;;61.70;29.13;;;-3.70;99.90;;;;;;5022028;28;20611;-79
2021/12/18 12:39:14;;;;;;;60.80;26.57;;;-2.60;99.90;;;;;;5025229;28;20191;-77
2021/12/18 12:41:50;;;;;;;54.70;27.67;;;-3.10;99.90;;;;;;5026970;28;20548;-84
2021/12/18 12:44:23;;;;;;;54.30;24.97;;;-3.20;99.90;;;;;;5026237;28;20226;-76
2021/12/18 12:47:20;;;;;;;52.57;24.10;;;-3.00;99.90;;;;;;5026473;28;20452;-80
2021/12/18 12:49:53;;;;;;;55.30;25.37;;;-2.80;99.90;;;;;;5015809;28;20186;-75
2021/12/18 12:52:20;;;;;;;47.23;24.17;;;-2.80;99.90;;;;;;5024834;28;20195;-77
2021/12/18 12:54:50;;;;;;;49.00;23.40;;;-3.30;99.90;;;;;;5034113;28;20591;-78
2021/12/18 12:57:22;;;;;;;48.13;22.30;;;-0.80;99.90;;;;;;5037413;28;20174;-76
2021/12/18 12:59:58;;;;;;;39.23;20.63;;;-2.10;99.90;;;;;;5037214;28;20190;-76
2021/12/18 13:02:26;;;;;;;44.33;20.77;;;-2.80;99.90;;;;;;5036994;28;20194;-81
2021/12/18 13:05:12;;;;;;;46.27;24.77;;;-1.00;99.90;;;;;;5035688;28;20210;-79
2021/12/18 13:07:47;;;;;;;50.70;22.37;;;-3.30;99.90;;;;;;5037135;28;20275;-76
2021/12/18 13:10:36;;;;;;;42.93;21.60;;;-1.40;99.90;;;;;;5036009;28;20170;-76
2021/12/18 13:13:10;;;;;;;39.43;19.50;;;-2.30;99.90;;;;;;5036236;28;20166;-76
2021/12/18 13:15:56;;;;;;;33.80;17.27;;;-2.40;99.90;;;;;;5036698;28;20193;-74
2021/12/18 13:18:35;;;;;;;34.23;19.23;;;-3.00;99.90;;;;;;5035558;28;20168;-75